Kaohsiung International Airport
RCKH : rendu visible

Aérodrome :











RETROUVEZ-NOUS SUR...

 
LOGIN :

S'inscrire | Disclaimer

   EN    FR    IT 

 









Légende :    VFR   VFR Marginal   IFR   IFR Intensif   IFR Très Intensif
Visi : 
Plafond : 
>= 8 km
>= 3000ft
5 à 8 km
1000 à 3000 ft
1500m à 5 km
500 à 1000 ft
800 à 1500m
200 à 500 ft
< 800m
< 200 ft
Symboles :   Orages  Brouillard  Fortes neiges  Fortes précipitations  Vent > 20 kt







- Altitude de l'aérodrome : 31 ft
- Code IATA : KHH


RCKH - Kaohsiung International

DERNIER METAR :
  • 200900Z 06005KT 9999 FEW015 SCT028 BKN080 26/26 Q1007 NOSIG RMK A2974

METARs EXPIRÉS :
  • 200830Z 04004KT 010V080 9999 FEW015 SCT028 BKN120 26/26 Q1007 NOSIG RMK A2974
  • 200811Z 02004KT 350V060 8000 VCSH FEW015 BKN028 BKN080 26/26 Q1007 NOSIG RMK A2975
  • 200800Z 02003KT 340V050 8000 -SHRA FEW008 BKN014 FEW015CB BKN045 26/26 Q1007 TEMPO 3000 SHRA RMK CB NW A2975 RA AMT 0.4MM
  • 200730Z 36004KT 320V050 6000 -SHRA FEW006 BKN012 FEW015CB BKN040 26/26 Q1007 RETS TEMPO 3000 SHRA RMK CB NW A2975
  • 200706Z 31003KT 270V360 4000 VCTS -SHRA SCT005 BKN008 FEW012CB BKN030 26/26 Q1008 TEMPO 5000 -SHRA RMK TS SE MOV SE A2977
  • 200655Z 27003KT 240V300 3500 -TSRA SCT005 BKN008 SCT010CB BKN025 27/26 Q1008 RESHRA TEMPO 5000 -SHRA RMK TS S-SW MOV SE A2977
  • 200630Z 27006KT 2200 TSRA SCT003 BKN005 SCT008CB BKN025 27/26 Q1008 NOSIG RMK TS S-SW MOV SE A2977
  • 200623Z 29004KT 260V340 2200 TSRA SCT003 BKN005 SCT008CB BKN025 27/26 Q1008 NOSIG RMK TS S-SW MOV SE A2977
  • 200600Z 31004KT 280V010 2200 VCTS SHRA SCT005 BKN012 FEW012CB BKN030 27/26 Q1008 NOSIG RMK TS S-SW MOV SE A2977 RA AMT 1.2MM

TAF TAF RCKH
Valide du 20 à 06h jusqu'au 21 à 12h UTC


200500Z 2006/2112 08005KT 6000 FEW012 BKN034
TEMPO 2006/2010 20007KT 1800 TSRA SCT006 BKN009 FEW015CB BKN035
TEMPO 2010/2014 19006KT 3500 SHRA SCT008 FEW018CB BKN020 BKN040
TEMPO 2017/2023 15005KT 4000 SHRA SCT010 BKN020 BKN040
BECMG 2023/2101 23005KT
TEMPO 2104/2108 24011KT
FIR RCAA / Asie



MET'MAP, la Météo Aéronautique d'un coup d'oeil ! - Copyright ORBIFLY Décembre 2007 - Disclaimer

ORBIFLY MET'MAP TEAM :

Programmation & Développement : Alexandra Zaïnal
Conception & Développement : Baudouin d'Aumeries
Co-Programmation & Développement : Marc-Olivier Méhu
Soutien technique & logistique : Manuel Goepfert

Contact : metmap@orbifly.com




SOURCES & CREDITS :

   NOAA       Earth
Advisory